sensor_id;sensor_type;location;lat;lon;timestamp;P1;durP1;ratioP1;P2;durP2;ratioP2
67556;SDS011;54387;53.526;49.300;2022-10-22T00:01:41;5.35;;;3.03;;
67556;SDS011;54387;53.526;49.300;2022-10-22T00:04:07;5.68;;;2.70;;
67556;SDS011;54387;53.526;49.300;2022-10-22T00:06:33;5.53;;;2.72;;
67556;SDS011;54387;53.526;49.300;2022-10-22T00:09:00;4.72;;;2.60;;
67556;SDS011;54387;53.526;49.300;2022-10-22T00:11:26;5.72;;;3.03;;
67556;SDS011;54387;53.526;49.300;2022-10-22T00:13:52;7.70;;;3.35;;
67556;SDS011;54387;53.526;49.300;2022-10-22T00:16:19;6.25;;;3.03;;
67556;SDS011;54387;53.526;49.300;2022-10-22T00:18:45;7.00;;;3.15;;
67556;SDS011;54387;53.526;49.300;2022-10-22T00:21:11;7.88;;;2.90;;
67556;SDS011;54387;53.526;49.300;2022-10-22T00:23:41;8.25;;;3.53;;
67556;SDS011;54387;53.526;49.300;2022-10-22T00:26:08;6.38;;;2.95;;
67556;SDS011;54387;53.526;49.300;2022-10-22T00:28:35;8.35;;;3.75;;
67556;SDS011;54387;53.526;49.300;2022-10-22T00:31:02;5.80;;;2.83;;
67556;SDS011;54387;53.526;49.300;2022-10-22T00:33:29;6.82;;;2.85;;
67556;SDS011;54387;53.526;49.300;2022-10-22T00:35:55;5.88;;;3.17;;
67556;SDS011;54387;53.526;49.300;2022-10-22T00:38:22;7.03;;;3.60;;
67556;SDS011;54387;53.526;49.300;2022-10-22T00:40:48;6.88;;;3.50;;
67556;SDS011;54387;53.526;49.300;2022-10-22T00:43:16;7.05;;;3.00;;
67556;SDS011;54387;53.526;49.300;2022-10-22T00:45:44;5.78;;;3.20;;
67556;SDS011;54387;53.526;49.300;2022-10-22T00:48:15;7.90;;;3.53;;
67556;SDS011;54387;53.526;49.300;2022-10-22T00:51:02;8.38;;;3.30;;
67556;SDS011;54387;53.526;49.300;2022-10-22T00:55:57;5.78;;;3.40;;
67556;SDS011;54387;53.526;49.300;2022-10-22T00:58:25;7.47;;;3.05;;
67556;SDS011;54387;53.526;49.300;2022-10-22T01:00:54;8.77;;;3.67;;
67556;SDS011;54387;53.526;49.300;2022-10-22T01:03:21;7.78;;;3.42;;
67556;SDS011;54387;53.526;49.300;2022-10-22T01:06:05;7.57;;;3.20;;
67556;SDS011;54387;53.526;49.300;2022-10-22T01:11:07;6.22;;;3.28;;
67556;SDS011;54387;53.526;49.300;2022-10-22T01:22:17;7.80;;;3.45;;
67556;SDS011;54387;53.526;49.300;2022-10-22T01:24:53;7.18;;;3.30;;
67556;SDS011;54387;53.526;49.300;2022-10-22T01:27:25;8.57;;;3.28;;
67556;SDS011;54387;53.526;49.300;2022-10-22T01:32:29;7.10;;;3.20;;
67556;SDS011;54387;53.526;49.300;2022-10-22T01:35:20;7.63;;;3.47;;
67556;SDS011;54387;53.526;49.300;2022-10-22T01:37:52;6.25;;;3.15;;
67556;SDS011;54387;53.526;49.300;2022-10-22T01:40:22;8.80;;;3.63;;
67556;SDS011;54387;53.526;49.300;2022-10-22T01:42:56;9.70;;;3.63;;
67556;SDS011;54387;53.526;49.300;2022-10-22T01:45:31;8.30;;;3.70;;
67556;SDS011;54387;53.526;49.300;2022-10-22T01:50:47;6.47;;;2.97;;
67556;SDS011;54387;53.526;49.300;2022-10-22T01:58:36;7.68;;;3.47;;
67556;SDS011;54387;53.526;49.300;2022-10-22T02:01:24;7.13;;;3.30;;
67556;SDS011;54387;53.526;49.300;2022-10-22T02:04:19;7.57;;;2.90;;
67556;SDS011;54387;53.526;49.300;2022-10-22T02:06:50;8.02;;;3.13;;
67556;SDS011;54387;53.526;49.300;2022-10-22T02:09:19;7.75;;;3.40;;
67556;SDS011;54387;53.526;49.300;2022-10-22T02:11:48;7.63;;;3.15;;
67556;SDS011;54387;53.526;49.300;2022-10-22T02:14:16;5.10;;;2.67;;
67556;SDS011;54387;53.526;49.300;2022-10-22T02:16:44;6.97;;;3.50;;
67556;SDS011;54387;53.526;49.300;2022-10-22T02:22:11;5.22;;;3.28;;
67556;SDS011;54387;53.526;49.300;2022-10-22T02:24:38;7.60;;;3.28;;
67556;SDS011;54387;53.526;49.300;2022-10-22T02:27:21;6.93;;;3.42;;
67556;SDS011;54387;53.526;49.300;2022-10-22T02:29:59;5.75;;;3.05;;
67556;SDS011;54387;53.526;49.300;2022-10-22T02:32:37;5.80;;;3.10;;
67556;SDS011;54387;53.526;49.300;2022-10-22T02:35:12;6.55;;;2.97;;
67556;SDS011;54387;53.526;49.300;2022-10-22T02:37:41;7.90;;;3.22;;
67556;SDS011;54387;53.526;49.300;2022-10-22T02:40:08;9.90;;;3.25;;
67556;SDS011;54387;53.526;49.300;2022-10-22T02:42:36;8.35;;;3.83;;
67556;SDS011;54387;53.526;49.300;2022-10-22T02:45:03;8.30;;;3.13;;
67556;SDS011;54387;53.526;49.300;2022-10-22T02:47:30;9.10;;;3.28;;
67556;SDS011;54387;53.526;49.300;2022-10-22T02:49:56;6.50;;;3.08;;
67556;SDS011;54387;53.526;49.300;2022-10-22T02:52:22;7.28;;;3.65;;
67556;SDS011;54387;53.526;49.300;2022-10-22T02:54:49;9.48;;;3.55;;
67556;SDS011;54387;53.526;49.300;2022-10-22T02:57:15;7.10;;;3.70;;
67556;SDS011;54387;53.526;49.300;2022-10-22T02:59:41;8.07;;;3.20;;
67556;SDS011;54387;53.526;49.300;2022-10-22T03:02:07;6.72;;;3.15;;
67556;SDS011;54387;53.526;49.300;2022-10-22T03:04:33;10.07;;;3.65;;
67556;SDS011;54387;53.526;49.300;2022-10-22T03:06:59;9.18;;;3.72;;
67556;SDS011;54387;53.526;49.300;2022-10-22T03:09:26;12.43;;;3.63;;
67556;SDS011;54387;53.526;49.300;2022-10-22T03:11:52;8.02;;;3.50;;
67556;SDS011;54387;53.526;49.300;2022-10-22T03:14:18;12.65;;;4.03;;
67556;SDS011;54387;53.526;49.300;2022-10-22T03:16:44;5.63;;;3.38;;
67556;SDS011;54387;53.526;49.300;2022-10-22T03:19:11;8.25;;;3.50;;
67556;SDS011;54387;53.526;49.300;2022-10-22T03:22:23;9.90;;;3.47;;
67556;SDS011;54387;53.526;49.300;2022-10-22T03:24:32;11.35;;;3.08;;
67556;SDS011;54387;53.526;49.300;2022-10-22T03:27:01;8.25;;;3.58;;
67556;SDS011;54387;53.526;49.300;2022-10-22T03:29:27;7.18;;;3.40;;
67556;SDS011;54387;53.526;49.300;2022-10-22T03:31:56;6.75;;;3.47;;
67556;SDS011;54387;53.526;49.300;2022-10-22T03:34:22;7.15;;;3.20;;
67556;SDS011;54387;53.526;49.300;2022-10-22T03:36:48;9.15;;;3.70;;
67556;SDS011;54387;53.526;49.300;2022-10-22T03:39:16;9.27;;;3.67;;
67556;SDS011;54387;53.526;49.300;2022-10-22T03:41:43;8.07;;;3.38;;
67556;SDS011;54387;53.526;49.300;2022-10-22T03:44:10;5.78;;;2.75;;
67556;SDS011;54387;53.526;49.300;2022-10-22T03:46:37;4.68;;;2.67;;
67556;SDS011;54387;53.526;49.300;2022-10-22T03:49:03;10.40;;;3.20;;
67556;SDS011;54387;53.526;49.300;2022-10-22T03:51:29;8.13;;;2.90;;
67556;SDS011;54387;53.526;49.300;2022-10-22T03:53:55;9.00;;;3.10;;
67556;SDS011;54387;53.526;49.300;2022-10-22T03:56:22;10.63;;;3.30;;
67556;SDS011;54387;53.526;49.300;2022-10-22T03:58:48;7.35;;;3.10;;
67556;SDS011;54387;53.526;49.300;2022-10-22T04:01:14;8.10;;;2.90;;
67556;SDS011;54387;53.526;49.300;2022-10-22T04:03:40;9.38;;;3.13;;
67556;SDS011;54387;53.526;49.300;2022-10-22T04:06:08;7.30;;;3.33;;
67556;SDS011;54387;53.526;49.300;2022-10-22T04:08:37;8.30;;;3.17;;
67556;SDS011;54387;53.526;49.300;2022-10-22T04:11:04;6.38;;;2.95;;
67556;SDS011;54387;53.526;49.300;2022-10-22T04:13:30;8.10;;;3.00;;
67556;SDS011;54387;53.526;49.300;2022-10-22T04:16:17;7.22;;;3.00;;
67556;SDS011;54387;53.526;49.300;2022-10-22T04:18:45;6.57;;;2.80;;
67556;SDS011;54387;53.526;49.300;2022-10-22T04:21:13;9.35;;;3.95;;
67556;SDS011;54387;53.526;49.300;2022-10-22T04:23:48;5.97;;;2.45;;
67556;SDS011;54387;53.526;49.300;2022-10-22T04:26:16;5.95;;;2.47;;
67556;SDS011;54387;53.526;49.300;2022-10-22T04:28:43;6.20;;;2.75;;
67556;SDS011;54387;53.526;49.300;2022-10-22T04:31:11;7.28;;;2.40;;
67556;SDS011;54387;53.526;49.300;2022-10-22T04:33:39;5.82;;;2.30;;
67556;SDS011;54387;53.526;49.300;2022-10-22T04:36:08;7.00;;;3.05;;
67556;SDS011;54387;53.526;49.300;2022-10-22T04:38:36;5.80;;;2.60;;
67556;SDS011;54387;53.526;49.300;2022-10-22T04:43:40;6.60;;;2.67;;
67556;SDS011;54387;53.526;49.300;2022-10-22T04:46:07;5.25;;;2.80;;
67556;SDS011;54387;53.526;49.300;2022-10-22T04:48:34;7.50;;;2.45;;
67556;SDS011;54387;53.526;49.300;2022-10-22T04:51:01;4.80;;;2.38;;
67556;SDS011;54387;53.526;49.300;2022-10-22T04:53:27;5.90;;;2.45;;
67556;SDS011;54387;53.526;49.300;2022-10-22T04:55:53;5.60;;;2.55;;
67556;SDS011;54387;53.526;49.300;2022-10-22T04:58:20;10.10;;;2.55;;
67556;SDS011;54387;53.526;49.300;2022-10-22T05:00:46;5.38;;;2.78;;
67556;SDS011;54387;53.526;49.300;2022-10-22T05:03:12;5.75;;;2.45;;
67556;SDS011;54387;53.526;49.300;2022-10-22T05:05:38;6.03;;;2.55;;
67556;SDS011;54387;53.526;49.300;2022-10-22T05:08:04;4.72;;;2.30;;
67556;SDS011;54387;53.526;49.300;2022-10-22T05:10:30;4.20;;;2.38;;
67556;SDS011;54387;53.526;49.300;2022-10-22T05:12:57;6.47;;;2.20;;
67556;SDS011;54387;53.526;49.300;2022-10-22T05:15:23;5.57;;;2.42;;
67556;SDS011;54387;53.526;49.300;2022-10-22T05:17:49;11.48;;;2.53;;
67556;SDS011;54387;53.526;49.300;2022-10-22T05:20:15;5.80;;;2.20;;
67556;SDS011;54387;53.526;49.300;2022-10-22T05:22:41;4.72;;;2.17;;
67556;SDS011;54387;53.526;49.300;2022-10-22T05:25:08;4.45;;;2.17;;
67556;SDS011;54387;53.526;49.300;2022-10-22T05:27:34;3.30;;;1.75;;
67556;SDS011;54387;53.526;49.300;2022-10-22T05:30:00;3.17;;;1.70;;
67556;SDS011;54387;53.526;49.300;2022-10-22T05:32:26;4.00;;;1.65;;
67556;SDS011;54387;53.526;49.300;2022-10-22T05:34:52;4.68;;;2.00;;
67556;SDS011;54387;53.526;49.300;2022-10-22T05:37:18;6.32;;;2.03;;
67556;SDS011;54387;53.526;49.300;2022-10-22T05:39:44;8.27;;;2.65;;
67556;SDS011;54387;53.526;49.300;2022-10-22T05:42:11;4.53;;;2.05;;
67556;SDS011;54387;53.526;49.300;2022-10-22T05:44:37;5.45;;;2.05;;
67556;SDS011;54387;53.526;49.300;2022-10-22T05:47:05;5.28;;;2.00;;
67556;SDS011;54387;53.526;49.300;2022-10-22T05:49:31;6.15;;;2.13;;
67556;SDS011;54387;53.526;49.300;2022-10-22T05:51:57;5.80;;;1.85;;
67556;SDS011;54387;53.526;49.300;2022-10-22T05:54:23;3.17;;;1.80;;
67556;SDS011;54387;53.526;49.300;2022-10-22T05:56:49;5.43;;;1.98;;
67556;SDS011;54387;53.526;49.300;2022-10-22T05:59:16;7.93;;;1.90;;
67556;SDS011;54387;53.526;49.300;2022-10-22T06:01:42;5.82;;;1.98;;
67556;SDS011;54387;53.526;49.300;2022-10-22T06:04:10;3.42;;;1.92;;
67556;SDS011;54387;53.526;49.300;2022-10-22T06:06:42;5.00;;;1.58;;
67556;SDS011;54387;53.526;49.300;2022-10-22T06:09:12;5.88;;;1.67;;
67556;SDS011;54387;53.526;49.300;2022-10-22T06:11:48;8.30;;;2.75;;
67556;SDS011;54387;53.526;49.300;2022-10-22T06:14:15;6.38;;;1.50;;
67556;SDS011;54387;53.526;49.300;2022-10-22T06:16:42;3.33;;;1.58;;
67556;SDS011;54387;53.526;49.300;2022-10-22T06:19:10;6.90;;;3.28;;
67556;SDS011;54387;53.526;49.300;2022-10-22T06:21:37;6.80;;;2.80;;
67556;SDS011;54387;53.526;49.300;2022-10-22T06:24:03;7.72;;;1.90;;
67556;SDS011;54387;53.526;49.300;2022-10-22T06:26:30;3.95;;;1.35;;
67556;SDS011;54387;53.526;49.300;2022-10-22T06:28:57;3.25;;;1.50;;
67556;SDS011;54387;53.526;49.300;2022-10-22T06:31:24;2.53;;;1.30;;
67556;SDS011;54387;53.526;49.300;2022-10-22T06:33:51;2.38;;;1.45;;
67556;SDS011;54387;53.526;49.300;2022-10-22T06:36:18;2.35;;;1.10;;
67556;SDS011;54387;53.526;49.300;2022-10-22T06:38:46;3.92;;;1.80;;
67556;SDS011;54387;53.526;49.300;2022-10-22T06:41:15;4.80;;;1.65;;
67556;SDS011;54387;53.526;49.300;2022-10-22T06:43:42;5.40;;;1.63;;
67556;SDS011;54387;53.526;49.300;2022-10-22T06:46:10;2.60;;;1.35;;
67556;SDS011;54387;53.526;49.300;2022-10-22T06:48:37;4.03;;;1.40;;
67556;SDS011;54387;53.526;49.300;2022-10-22T06:51:05;3.08;;;1.50;;
67556;SDS011;54387;53.526;49.300;2022-10-22T06:53:33;2.17;;;1.23;;
67556;SDS011;54387;53.526;49.300;2022-10-22T06:56:03;6.43;;;1.30;;
67556;SDS011;54387;53.526;49.300;2022-10-22T06:58:34;4.13;;;1.23;;
67556;SDS011;54387;53.526;49.300;2022-10-22T07:01:01;3.47;;;1.30;;
67556;SDS011;54387;53.526;49.300;2022-10-22T07:03:27;5.03;;;1.52;;
67556;SDS011;54387;53.526;49.300;2022-10-22T07:05:53;2.13;;;1.08;;
67556;SDS011;54387;53.526;49.300;2022-10-22T07:08:19;4.30;;;0.93;;
67556;SDS011;54387;53.526;49.300;2022-10-22T07:10:45;3.05;;;1.20;;
67556;SDS011;54387;53.526;49.300;2022-10-22T07:13:12;7.00;;;1.52;;
67556;SDS011;54387;53.526;49.300;2022-10-22T07:15:38;3.50;;;1.40;;
67556;SDS011;54387;53.526;49.300;2022-10-22T07:18:04;1.88;;;1.05;;
67556;SDS011;54387;53.526;49.300;2022-10-22T07:20:30;4.82;;;1.30;;
67556;SDS011;54387;53.526;49.300;2022-10-22T07:22:56;8.85;;;1.38;;
67556;SDS011;54387;53.526;49.300;2022-10-22T07:25:22;15.50;;;2.45;;
67556;SDS011;54387;53.526;49.300;2022-10-22T07:27:48;4.65;;;1.52;;
67556;SDS011;54387;53.526;49.300;2022-10-22T07:30:15;3.95;;;1.60;;
67556;SDS011;54387;53.526;49.300;2022-10-22T07:32:41;1.88;;;0.98;;
67556;SDS011;54387;53.526;49.300;2022-10-22T07:35:07;3.85;;;1.40;;
67556;SDS011;54387;53.526;49.300;2022-10-22T07:37:33;5.05;;;1.40;;
67556;SDS011;54387;53.526;49.300;2022-10-22T07:40:00;7.95;;;2.35;;
67556;SDS011;54387;53.526;49.300;2022-10-22T07:42:26;7.97;;;2.15;;
67556;SDS011;54387;53.526;49.300;2022-10-22T07:44:52;3.58;;;1.27;;
67556;SDS011;54387;53.526;49.300;2022-10-22T07:47:18;5.45;;;1.00;;
67556;SDS011;54387;53.526;49.300;2022-10-22T07:49:45;3.28;;;1.20;;
67556;SDS011;54387;53.526;49.300;2022-10-22T07:52:11;4.20;;;1.55;;
67556;SDS011;54387;53.526;49.300;2022-10-22T07:54:37;7.85;;;0.95;;
67556;SDS011;54387;53.526;49.300;2022-10-22T07:57:03;4.35;;;0.90;;
67556;SDS011;54387;53.526;49.300;2022-10-22T07:59:29;1.90;;;0.95;;
67556;SDS011;54387;53.526;49.300;2022-10-22T08:01:55;3.78;;;1.08;;
67556;SDS011;54387;53.526;49.300;2022-10-22T08:04:21;1.85;;;0.82;;
67556;SDS011;54387;53.526;49.300;2022-10-22T08:06:48;2.83;;;0.93;;
67556;SDS011;54387;53.526;49.300;2022-10-22T08:09:14;4.82;;;1.10;;
67556;SDS011;54387;53.526;49.300;2022-10-22T08:11:40;2.53;;;0.90;;
67556;SDS011;54387;53.526;49.300;2022-10-22T08:14:06;3.78;;;1.10;;
67556;SDS011;54387;53.526;49.300;2022-10-22T08:16:32;7.45;;;1.48;;
67556;SDS011;54387;53.526;49.300;2022-10-22T08:18:59;3.70;;;1.00;;
67556;SDS011;54387;53.526;49.300;2022-10-22T08:21:25;4.35;;;1.40;;
67556;SDS011;54387;53.526;49.300;2022-10-22T08:23:52;3.35;;;1.13;;
67556;SDS011;54387;53.526;49.300;2022-10-22T08:26:18;4.43;;;1.10;;
67556;SDS011;54387;53.526;49.300;2022-10-22T08:28:44;3.35;;;1.10;;
67556;SDS011;54387;53.526;49.300;2022-10-22T08:31:10;4.32;;;1.50;;
67556;SDS011;54387;53.526;49.300;2022-10-22T08:33:36;3.83;;;1.20;;
67556;SDS011;54387;53.526;49.300;2022-10-22T08:36:03;5.25;;;1.05;;
67556;SDS011;54387;53.526;49.300;2022-10-22T08:38:30;3.45;;;1.00;;
67556;SDS011;54387;53.526;49.300;2022-10-22T08:40:59;4.18;;;1.42;;
67556;SDS011;54387;53.526;49.300;2022-10-22T08:48:55;7.32;;;1.05;;
67556;SDS011;54387;53.526;49.300;2022-10-22T08:51:24;0.90;;;0.50;;
67556;SDS011;54387;53.526;49.300;2022-10-22T08:56:48;2.20;;;1.00;;
67556;SDS011;54387;53.526;49.300;2022-10-22T09:05:15;3.25;;;1.30;;
67556;SDS011;54387;53.526;49.300;2022-10-22T09:07:49;1.80;;;0.90;;
67556;SDS011;54387;53.526;49.300;2022-10-22T09:10:16;1.40;;;0.80;;
67556;SDS011;54387;53.526;49.300;2022-10-22T09:12:46;2.35;;;1.30;;
67556;SDS011;54387;53.526;49.300;2022-10-22T09:15:13;2.90;;;1.35;;
67556;SDS011;54387;53.526;49.300;2022-10-22T09:17:49;2.42;;;1.02;;
67556;SDS011;54387;53.526;49.300;2022-10-22T09:20:47;3.03;;;1.00;;
67556;SDS011;54387;53.526;49.300;2022-10-22T09:26:00;3.33;;;0.70;;
67556;SDS011;54387;53.526;49.300;2022-10-22T09:28:26;2.33;;;1.35;;
67556;SDS011;54387;53.526;49.300;2022-10-22T09:30:52;3.10;;;1.08;;
67556;SDS011;54387;53.526;49.300;2022-10-22T09:35:53;3.60;;;1.10;;
67556;SDS011;54387;53.526;49.300;2022-10-22T09:38:25;1.75;;;0.88;;
67556;SDS011;54387;53.526;49.300;2022-10-22T09:40:54;3.03;;;1.05;;
67556;SDS011;54387;53.526;49.300;2022-10-22T09:43:22;2.70;;;1.10;;
67556;SDS011;54387;53.526;49.300;2022-10-22T09:45:59;1.90;;;0.98;;
67556;SDS011;54387;53.526;49.300;2022-10-22T09:48:31;2.55;;;1.15;;
67556;SDS011;54387;53.526;49.300;2022-10-22T09:53:40;6.20;;;1.10;;
67556;SDS011;54387;53.526;49.300;2022-10-22T09:56:09;3.92;;;2.05;;
67556;SDS011;54387;53.526;49.300;2022-10-22T09:59:00;2.03;;;0.88;;
67556;SDS011;54387;53.526;49.300;2022-10-22T10:01:28;4.63;;;1.70;;
67556;SDS011;54387;53.526;49.300;2022-10-22T10:04:03;4.10;;;2.03;;
67556;SDS011;54387;53.526;49.300;2022-10-22T10:06:33;6.43;;;2.10;;
67556;SDS011;54387;53.526;49.300;2022-10-22T10:08:59;2.58;;;1.27;;
67556;SDS011;54387;53.526;49.300;2022-10-22T10:11:38;5.28;;;1.85;;
67556;SDS011;54387;53.526;49.300;2022-10-22T10:16:59;3.00;;;1.40;;
67556;SDS011;54387;53.526;49.300;2022-10-22T10:25:19;2.58;;;1.20;;
67556;SDS011;54387;53.526;49.300;2022-10-22T10:34:00;3.42;;;1.65;;
67556;SDS011;54387;53.526;49.300;2022-10-22T10:36:50;3.28;;;1.70;;
67556;SDS011;54387;53.526;49.300;2022-10-22T10:42:11;6.10;;;1.70;;
67556;SDS011;54387;53.526;49.300;2022-10-22T10:44:47;3.85;;;1.80;;
67556;SDS011;54387;53.526;49.300;2022-10-22T10:50:16;4.97;;;1.70;;
67556;SDS011;54387;53.526;49.300;2022-10-22T10:55:54;2.83;;;1.33;;
67556;SDS011;54387;53.526;49.300;2022-10-22T10:58:29;5.20;;;1.50;;
67556;SDS011;54387;53.526;49.300;2022-10-22T11:00:58;4.57;;;2.00;;
67556;SDS011;54387;53.526;49.300;2022-10-22T11:06:48;3.33;;;1.60;;
67556;SDS011;54387;53.526;49.300;2022-10-22T11:11:55;3.05;;;1.48;;
67556;SDS011;54387;53.526;49.300;2022-10-22T11:14:30;4.80;;;2.00;;
67556;SDS011;54387;53.526;49.300;2022-10-22T11:19:31;6.43;;;1.50;;
67556;SDS011;54387;53.526;49.300;2022-10-22T11:22:26;2.95;;;1.60;;
67556;SDS011;54387;53.526;49.300;2022-10-22T11:25:05;5.78;;;1.85;;
67556;SDS011;54387;53.526;49.300;2022-10-22T11:27:39;5.05;;;1.27;;
67556;SDS011;54387;53.526;49.300;2022-10-22T11:30:17;2.80;;;1.02;;
67556;SDS011;54387;53.526;49.300;2022-10-22T11:32:55;3.63;;;1.13;;
67556;SDS011;54387;53.526;49.300;2022-10-22T11:35:26;5.72;;;1.25;;
67556;SDS011;54387;53.526;49.300;2022-10-22T11:37:58;3.78;;;1.67;;
67556;SDS011;54387;53.526;49.300;2022-10-22T11:43:09;6.22;;;1.30;;
67556;SDS011;54387;53.526;49.300;2022-10-22T11:45:49;10.23;;;1.77;;
67556;SDS011;54387;53.526;49.300;2022-10-22T11:48:41;3.13;;;1.10;;
67556;SDS011;54387;53.526;49.300;2022-10-22T11:54:01;2.75;;;1.20;;
67556;SDS011;54387;53.526;49.300;2022-10-22T11:56:47;3.85;;;1.00;;
67556;SDS011;54387;53.526;49.300;2022-10-22T12:04:49;2.58;;;1.20;;
67556;SDS011;54387;53.526;49.300;2022-10-22T12:07:32;2.63;;;1.10;;
67556;SDS011;54387;53.526;49.300;2022-10-22T12:10:20;5.50;;;1.20;;
67556;SDS011;54387;53.526;49.300;2022-10-22T12:13:10;4.47;;;1.30;;
67556;SDS011;54387;53.526;49.300;2022-10-22T12:15:46;3.45;;;1.00;;
67556;SDS011;54387;53.526;49.300;2022-10-22T12:18:14;3.53;;;1.38;;
67556;SDS011;54387;53.526;49.300;2022-10-22T12:20:40;5.15;;;1.00;;
67556;SDS011;54387;53.526;49.300;2022-10-22T12:23:08;5.97;;;2.08;;
67556;SDS011;54387;53.526;49.300;2022-10-22T12:25:36;3.20;;;1.05;;
67556;SDS011;54387;53.526;49.300;2022-10-22T12:28:03;2.55;;;0.98;;
67556;SDS011;54387;53.526;49.300;2022-10-22T12:30:34;7.05;;;1.77;;
67556;SDS011;54387;53.526;49.300;2022-10-22T12:33:02;4.72;;;1.70;;
67556;SDS011;54387;53.526;49.300;2022-10-22T12:35:31;5.00;;;1.40;;
67556;SDS011;54387;53.526;49.300;2022-10-22T12:38:00;2.85;;;1.08;;
67556;SDS011;54387;53.526;49.300;2022-10-22T12:40:32;4.28;;;1.08;;
67556;SDS011;54387;53.526;49.300;2022-10-22T12:43:00;4.25;;;1.80;;
67556;SDS011;54387;53.526;49.300;2022-10-22T12:45:32;7.60;;;1.50;;
67556;SDS011;54387;53.526;49.300;2022-10-22T12:48:00;3.10;;;0.95;;
67556;SDS011;54387;53.526;49.300;2022-10-22T12:50:32;4.38;;;1.35;;
67556;SDS011;54387;53.526;49.300;2022-10-22T12:53:16;6.18;;;1.75;;
67556;SDS011;54387;53.526;49.300;2022-10-22T12:58:16;4.53;;;1.42;;
67556;SDS011;54387;53.526;49.300;2022-10-22T13:00:45;5.72;;;1.60;;
67556;SDS011;54387;53.526;49.300;2022-10-22T13:03:21;2.85;;;1.20;;
67556;SDS011;54387;53.526;49.300;2022-10-22T13:11:10;7.20;;;1.95;;
67556;SDS011;54387;53.526;49.300;2022-10-22T13:13:41;5.03;;;2.25;;
67556;SDS011;54387;53.526;49.300;2022-10-22T13:16:20;5.72;;;1.95;;
67556;SDS011;54387;53.526;49.300;2022-10-22T13:18:52;4.38;;;1.50;;
67556;SDS011;54387;53.526;49.300;2022-10-22T13:21:24;7.50;;;2.08;;
67556;SDS011;54387;53.526;49.300;2022-10-22T13:23:53;11.50;;;2.92;;
67556;SDS011;54387;53.526;49.300;2022-10-22T13:28:58;6.68;;;2.00;;
67556;SDS011;54387;53.526;49.300;2022-10-22T13:31:26;5.32;;;1.63;;
67556;SDS011;54387;53.526;49.300;2022-10-22T13:34:04;6.70;;;1.80;;
67556;SDS011;54387;53.526;49.300;2022-10-22T13:36:34;6.70;;;1.40;;
67556;SDS011;54387;53.526;49.300;2022-10-22T13:39:01;7.18;;;1.90;;
67556;SDS011;54387;53.526;49.300;2022-10-22T13:41:30;6.60;;;2.47;;
67556;SDS011;54387;53.526;49.300;2022-10-22T13:44:02;6.95;;;2.25;;
67556;SDS011;54387;53.526;49.300;2022-10-22T13:46:28;7.53;;;2.10;;
67556;SDS011;54387;53.526;49.300;2022-10-22T13:48:56;7.32;;;1.98;;
67556;SDS011;54387;53.526;49.300;2022-10-22T13:51:27;7.97;;;1.77;;
67556;SDS011;54387;53.526;49.300;2022-10-22T13:53:59;7.95;;;2.08;;
67556;SDS011;54387;53.526;49.300;2022-10-22T13:56:26;7.53;;;2.15;;
67556;SDS011;54387;53.526;49.300;2022-10-22T13:58:52;10.50;;;1.65;;
67556;SDS011;54387;53.526;49.300;2022-10-22T14:01:22;6.13;;;1.80;;
67556;SDS011;54387;53.526;49.300;2022-10-22T14:03:51;7.75;;;1.65;;
67556;SDS011;54387;53.526;49.300;2022-10-22T14:06:23;5.30;;;1.50;;
67556;SDS011;54387;53.526;49.300;2022-10-22T14:08:56;5.50;;;1.65;;
67556;SDS011;54387;53.526;49.300;2022-10-22T14:11:24;6.30;;;1.55;;
67556;SDS011;54387;53.526;49.300;2022-10-22T14:13:52;3.45;;;1.40;;
67556;SDS011;54387;53.526;49.300;2022-10-22T14:16:19;5.90;;;1.92;;
67556;SDS011;54387;53.526;49.300;2022-10-22T14:18:48;7.00;;;1.90;;
67556;SDS011;54387;53.526;49.300;2022-10-22T14:21:15;8.35;;;1.92;;
67556;SDS011;54387;53.526;49.300;2022-10-22T14:23:44;20.15;;;2.75;;
67556;SDS011;54387;53.526;49.300;2022-10-22T14:26:20;18.10;;;2.88;;
67556;SDS011;54387;53.526;49.300;2022-10-22T14:28:57;13.38;;;3.30;;
67556;SDS011;54387;53.526;49.300;2022-10-22T14:31:24;11.85;;;2.80;;
67556;SDS011;54387;53.526;49.300;2022-10-22T14:33:51;14.13;;;3.13;;
67556;SDS011;54387;53.526;49.300;2022-10-22T14:36:17;13.43;;;2.88;;
67556;SDS011;54387;53.526;49.300;2022-10-22T14:38:45;14.10;;;2.53;;
67556;SDS011;54387;53.526;49.300;2022-10-22T14:41:23;9.75;;;2.05;;
67556;SDS011;54387;53.526;49.300;2022-10-22T14:43:52;10.38;;;2.95;;
67556;SDS011;54387;53.526;49.300;2022-10-22T14:46:20;23.40;;;4.70;;
67556;SDS011;54387;53.526;49.300;2022-10-22T14:48:46;13.35;;;4.05;;
67556;SDS011;54387;53.526;49.300;2022-10-22T14:51:14;8.65;;;3.72;;
67556;SDS011;54387;53.526;49.300;2022-10-22T14:53:42;15.52;;;3.72;;
67556;SDS011;54387;53.526;49.300;2022-10-22T14:56:12;11.63;;;3.10;;
67556;SDS011;54387;53.526;49.300;2022-10-22T14:58:40;13.95;;;3.42;;
67556;SDS011;54387;53.526;49.300;2022-10-22T15:01:07;16.73;;;3.53;;
67556;SDS011;54387;53.526;49.300;2022-10-22T15:03:34;18.35;;;3.95;;
67556;SDS011;54387;53.526;49.300;2022-10-22T15:06:01;14.10;;;4.05;;
67556;SDS011;54387;53.526;49.300;2022-10-22T15:08:27;15.32;;;4.57;;
67556;SDS011;54387;53.526;49.300;2022-10-22T15:11:03;14.10;;;5.05;;
67556;SDS011;54387;53.526;49.300;2022-10-22T15:13:31;17.75;;;5.22;;
67556;SDS011;54387;53.526;49.300;2022-10-22T15:15:58;21.73;;;6.25;;
67556;SDS011;54387;53.526;49.300;2022-10-22T15:18:25;21.90;;;6.60;;
67556;SDS011;54387;53.526;49.300;2022-10-22T15:20:56;18.27;;;6.07;;
67556;SDS011;54387;53.526;49.300;2022-10-22T15:23:26;18.67;;;6.05;;
67556;SDS011;54387;53.526;49.300;2022-10-22T15:25:53;22.92;;;6.50;;
67556;SDS011;54387;53.526;49.300;2022-10-22T15:28:20;12.15;;;5.68;;
67556;SDS011;54387;53.526;49.300;2022-10-22T15:30:57;15.52;;;5.47;;
67556;SDS011;54387;53.526;49.300;2022-10-22T15:33:24;25.25;;;6.07;;
67556;SDS011;54387;53.526;49.300;2022-10-22T15:35:51;20.85;;;6.07;;
67556;SDS011;54387;53.526;49.300;2022-10-22T15:38:17;21.33;;;6.30;;
67556;SDS011;54387;53.526;49.300;2022-10-22T15:40:44;27.05;;;6.10;;
67556;SDS011;54387;53.526;49.300;2022-10-22T15:43:10;25.23;;;6.68;;
67556;SDS011;54387;53.526;49.300;2022-10-22T15:45:37;19.25;;;5.45;;
67556;SDS011;54387;53.526;49.300;2022-10-22T15:48:03;14.43;;;5.30;;
67556;SDS011;54387;53.526;49.300;2022-10-22T15:50:30;15.85;;;5.68;;
67556;SDS011;54387;53.526;49.300;2022-10-22T15:52:56;13.13;;;5.30;;
67556;SDS011;54387;53.526;49.300;2022-10-22T15:55:23;18.38;;;5.15;;
67556;SDS011;54387;53.526;49.300;2022-10-22T15:57:52;13.25;;;4.03;;
67556;SDS011;54387;53.526;49.300;2022-10-22T16:00:20;17.27;;;5.05;;
67556;SDS011;54387;53.526;49.300;2022-10-22T16:02:47;13.57;;;4.53;;
67556;SDS011;54387;53.526;49.300;2022-10-22T16:05:13;11.30;;;4.22;;
67556;SDS011;54387;53.526;49.300;2022-10-22T16:07:39;14.50;;;4.70;;
67556;SDS011;54387;53.526;49.300;2022-10-22T16:10:06;19.35;;;3.97;;
67556;SDS011;54387;53.526;49.300;2022-10-22T16:12:32;12.07;;;4.13;;
67556;SDS011;54387;53.526;49.300;2022-10-22T16:15:00;14.05;;;3.83;;
67556;SDS011;54387;53.526;49.300;2022-10-22T16:17:26;15.50;;;4.60;;
67556;SDS011;54387;53.526;49.300;2022-10-22T16:19:52;15.98;;;4.70;;
67556;SDS011;54387;53.526;49.300;2022-10-22T16:22:19;13.63;;;4.50;;
67556;SDS011;54387;53.526;49.300;2022-10-22T16:24:45;10.25;;;4.88;;
67556;SDS011;54387;53.526;49.300;2022-10-22T16:27:11;13.85;;;3.83;;
67556;SDS011;54387;53.526;49.300;2022-10-22T16:29:37;13.00;;;3.53;;
67556;SDS011;54387;53.526;49.300;2022-10-22T16:32:04;15.43;;;3.85;;